sensor_id;sensor_type;location;lat;lon;timestamp;P1;durP1;ratioP1;P2;durP2;ratioP2
9310;SDS011;4694;52.464;13.480;2023-07-20T00:01:29;6.90;;;5.13;;
9310;SDS011;4694;52.464;13.480;2023-07-20T00:03:56;7.35;;;5.03;;
9310;SDS011;4694;52.464;13.480;2023-07-20T00:06:23;5.43;;;4.88;;
9310;SDS011;4694;52.464;13.480;2023-07-20T00:08:52;8.88;;;4.70;;
9310;SDS011;4694;52.464;13.480;2023-07-20T00:11:19;5.60;;;4.20;;
9310;SDS011;4694;52.464;13.480;2023-07-20T00:13:46;9.73;;;5.85;;
9310;SDS011;4694;52.464;13.480;2023-07-20T00:16:14;6.65;;;5.38;;
9310;SDS011;4694;52.464;13.480;2023-07-20T00:18:40;9.13;;;5.30;;
9310;SDS011;4694;52.464;13.480;2023-07-20T00:21:07;7.90;;;5.05;;
9310;SDS011;4694;52.464;13.480;2023-07-20T00:23:34;6.47;;;5.38;;
9310;SDS011;4694;52.464;13.480;2023-07-20T00:26:01;7.60;;;5.43;;
9310;SDS011;4694;52.464;13.480;2023-07-20T00:28:28;9.00;;;4.80;;
9310;SDS011;4694;52.464;13.480;2023-07-20T00:30:55;5.97;;;5.20;;
9310;SDS011;4694;52.464;13.480;2023-07-20T00:33:23;9.27;;;6.32;;
9310;SDS011;4694;52.464;13.480;2023-07-20T00:35:49;7.88;;;5.72;;
9310;SDS011;4694;52.464;13.480;2023-07-20T00:38:17;6.78;;;6.07;;
9310;SDS011;4694;52.464;13.480;2023-07-20T00:40:44;8.32;;;6.15;;
9310;SDS011;4694;52.464;13.480;2023-07-20T00:43:10;8.27;;;5.93;;
9310;SDS011;4694;52.464;13.480;2023-07-20T00:45:37;9.57;;;6.15;;
9310;SDS011;4694;52.464;13.480;2023-07-20T00:48:05;7.72;;;6.13;;
9310;SDS011;4694;52.464;13.480;2023-07-20T00:50:34;6.28;;;5.07;;
9310;SDS011;4694;52.464;13.480;2023-07-20T00:53:01;7.82;;;5.32;;
9310;SDS011;4694;52.464;13.480;2023-07-20T00:55:29;11.02;;;6.35;;
9310;SDS011;4694;52.464;13.480;2023-07-20T00:57:56;9.63;;;6.20;;
9310;SDS011;4694;52.464;13.480;2023-07-20T01:00:23;6.57;;;5.78;;
9310;SDS011;4694;52.464;13.480;2023-07-20T01:02:50;6.95;;;5.72;;
9310;SDS011;4694;52.464;13.480;2023-07-20T01:05:17;7.28;;;5.25;;
9310;SDS011;4694;52.464;13.480;2023-07-20T01:07:48;10.48;;;5.78;;
9310;SDS011;4694;52.464;13.480;2023-07-20T01:10:20;8.63;;;6.65;;
9310;SDS011;4694;52.464;13.480;2023-07-20T01:12:53;9.48;;;5.80;;
9310;SDS011;4694;52.464;13.480;2023-07-20T01:15:22;10.27;;;5.68;;
9310;SDS011;4694;52.464;13.480;2023-07-20T01:17:49;9.73;;;5.93;;
9310;SDS011;4694;52.464;13.480;2023-07-20T01:20:16;5.93;;;5.32;;
9310;SDS011;4694;52.464;13.480;2023-07-20T01:25:34;8.43;;;7.22;;
9310;SDS011;4694;52.464;13.480;2023-07-20T01:31:18;9.23;;;7.20;;
9310;SDS011;4694;52.464;13.480;2023-07-20T01:33:47;10.68;;;7.00;;
9310;SDS011;4694;52.464;13.480;2023-07-20T01:36:16;8.85;;;7.95;;
9310;SDS011;4694;52.464;13.480;2023-07-20T01:38:46;9.57;;;7.63;;
9310;SDS011;4694;52.464;13.480;2023-07-20T01:41:13;8.93;;;6.13;;
9310;SDS011;4694;52.464;13.480;2023-07-20T01:43:42;7.65;;;6.68;;
9310;SDS011;4694;52.464;13.480;2023-07-20T01:46:08;10.57;;;6.47;;
9310;SDS011;4694;52.464;13.480;2023-07-20T01:48:36;7.55;;;6.65;;
9310;SDS011;4694;52.464;13.480;2023-07-20T01:51:03;10.90;;;6.80;;
9310;SDS011;4694;52.464;13.480;2023-07-20T01:53:29;6.30;;;5.70;;
9310;SDS011;4694;52.464;13.480;2023-07-20T01:55:56;7.90;;;6.35;;
9310;SDS011;4694;52.464;13.480;2023-07-20T01:58:23;7.10;;;5.45;;
9310;SDS011;4694;52.464;13.480;2023-07-20T02:00:50;6.50;;;5.90;;
9310;SDS011;4694;52.464;13.480;2023-07-20T02:03:17;7.00;;;6.05;;
9310;SDS011;4694;52.464;13.480;2023-07-20T02:05:45;7.38;;;5.57;;
9310;SDS011;4694;52.464;13.480;2023-07-20T02:08:11;6.57;;;5.85;;
9310;SDS011;4694;52.464;13.480;2023-07-20T02:10:38;7.20;;;6.22;;
9310;SDS011;4694;52.464;13.480;2023-07-20T02:13:05;7.50;;;5.32;;
9310;SDS011;4694;52.464;13.480;2023-07-20T02:15:31;7.93;;;5.82;;
9310;SDS011;4694;52.464;13.480;2023-07-20T02:17:58;7.40;;;5.93;;
9310;SDS011;4694;52.464;13.480;2023-07-20T02:20:24;8.88;;;6.32;;
9310;SDS011;4694;52.464;13.480;2023-07-20T02:22:53;8.85;;;6.18;;
9310;SDS011;4694;52.464;13.480;2023-07-20T02:25:21;8.88;;;6.47;;
9310;SDS011;4694;52.464;13.480;2023-07-20T02:27:47;7.28;;;6.05;;
9310;SDS011;4694;52.464;13.480;2023-07-20T02:30:14;8.65;;;6.72;;
9310;SDS011;4694;52.464;13.480;2023-07-20T02:32:41;7.60;;;6.80;;
9310;SDS011;4694;52.464;13.480;2023-07-20T02:35:10;8.32;;;6.18;;
9310;SDS011;4694;52.464;13.480;2023-07-20T02:37:37;10.00;;;7.07;;
9310;SDS011;4694;52.464;13.480;2023-07-20T02:40:06;7.82;;;6.80;;
9310;SDS011;4694;52.464;13.480;2023-07-20T02:42:33;9.23;;;7.43;;
9310;SDS011;4694;52.464;13.480;2023-07-20T02:45:01;10.32;;;7.40;;
9310;SDS011;4694;52.464;13.480;2023-07-20T02:47:29;8.18;;;6.25;;
9310;SDS011;4694;52.464;13.480;2023-07-20T02:49:56;10.35;;;6.75;;
9310;SDS011;4694;52.464;13.480;2023-07-20T02:52:22;8.77;;;7.00;;
9310;SDS011;4694;52.464;13.480;2023-07-20T02:54:49;8.55;;;7.65;;
9310;SDS011;4694;52.464;13.480;2023-07-20T02:57:17;11.60;;;8.63;;
9310;SDS011;4694;52.464;13.480;2023-07-20T02:59:44;14.07;;;10.90;;
9310;SDS011;4694;52.464;13.480;2023-07-20T03:02:10;11.18;;;10.00;;
9310;SDS011;4694;52.464;13.480;2023-07-20T03:04:37;12.90;;;11.50;;
9310;SDS011;4694;52.464;13.480;2023-07-20T03:07:04;15.48;;;11.70;;
9310;SDS011;4694;52.464;13.480;2023-07-20T03:09:32;19.65;;;12.70;;
9310;SDS011;4694;52.464;13.480;2023-07-20T03:11:58;15.82;;;11.70;;
9310;SDS011;4694;52.464;13.480;2023-07-20T03:14:27;13.98;;;11.27;;
9310;SDS011;4694;52.464;13.480;2023-07-20T03:16:54;18.60;;;12.68;;
9310;SDS011;4694;52.464;13.480;2023-07-20T03:19:20;14.05;;;11.13;;
9310;SDS011;4694;52.464;13.480;2023-07-20T03:21:47;14.15;;;12.65;;
9310;SDS011;4694;52.464;13.480;2023-07-20T03:24:14;16.65;;;12.35;;
9310;SDS011;4694;52.464;13.480;2023-07-20T03:26:42;15.05;;;12.65;;
9310;SDS011;4694;52.464;13.480;2023-07-20T03:29:09;16.23;;;14.38;;
9310;SDS011;4694;52.464;13.480;2023-07-20T03:31:37;19.05;;;14.88;;
9310;SDS011;4694;52.464;13.480;2023-07-20T03:34:04;17.52;;;15.48;;
9310;SDS011;4694;52.464;13.480;2023-07-20T03:36:31;19.45;;;15.40;;
9310;SDS011;4694;52.464;13.480;2023-07-20T03:38:57;17.88;;;14.68;;
9310;SDS011;4694;52.464;13.480;2023-07-20T03:41:24;18.65;;;14.63;;
9310;SDS011;4694;52.464;13.480;2023-07-20T03:43:51;21.20;;;13.82;;
9310;SDS011;4694;52.464;13.480;2023-07-20T03:46:17;19.42;;;13.15;;
9310;SDS011;4694;52.464;13.480;2023-07-20T03:48:45;20.33;;;14.70;;
9310;SDS011;4694;52.464;13.480;2023-07-20T03:51:12;16.85;;;13.57;;
9310;SDS011;4694;52.464;13.480;2023-07-20T03:53:39;16.55;;;13.30;;
9310;SDS011;4694;52.464;13.480;2023-07-20T03:56:05;19.30;;;12.68;;
9310;SDS011;4694;52.464;13.480;2023-07-20T03:58:32;15.27;;;12.00;;
9310;SDS011;4694;52.464;13.480;2023-07-20T04:00:59;15.20;;;10.93;;
9310;SDS011;4694;52.464;13.480;2023-07-20T04:03:26;12.25;;;10.95;;
9310;SDS011;4694;52.464;13.480;2023-07-20T04:05:54;14.00;;;10.93;;
9310;SDS011;4694;52.464;13.480;2023-07-20T04:08:22;17.35;;;12.05;;
9310;SDS011;4694;52.464;13.480;2023-07-20T04:10:50;15.40;;;12.90;;
9310;SDS011;4694;52.464;13.480;2023-07-20T04:13:17;21.40;;;13.32;;
9310;SDS011;4694;52.464;13.480;2023-07-20T04:15:44;16.08;;;13.30;;
9310;SDS011;4694;52.464;13.480;2023-07-20T04:18:10;21.33;;;16.77;;
9310;SDS011;4694;52.464;13.480;2023-07-20T04:20:37;18.27;;;15.23;;
9310;SDS011;4694;52.464;13.480;2023-07-20T04:23:05;23.10;;;16.42;;
9310;SDS011;4694;52.464;13.480;2023-07-20T04:25:32;17.20;;;14.75;;
9310;SDS011;4694;52.464;13.480;2023-07-20T04:28:03;21.40;;;14.73;;
9310;SDS011;4694;52.464;13.480;2023-07-20T04:30:33;18.75;;;14.70;;
9310;SDS011;4694;52.464;13.480;2023-07-20T04:33:00;18.83;;;15.40;;
9310;SDS011;4694;52.464;13.480;2023-07-20T04:38:13;13.65;;;11.57;;
9310;SDS011;4694;52.464;13.480;2023-07-20T04:40:42;12.55;;;9.45;;
9310;SDS011;4694;52.464;13.480;2023-07-20T04:43:09;11.20;;;8.75;;
9310;SDS011;4694;52.464;13.480;2023-07-20T04:45:37;14.10;;;9.07;;
9310;SDS011;4694;52.464;13.480;2023-07-20T04:48:06;11.63;;;9.57;;
9310;SDS011;4694;52.464;13.480;2023-07-20T04:50:35;9.82;;;8.65;;
9310;SDS011;4694;52.464;13.480;2023-07-20T04:53:02;12.05;;;8.73;;
9310;SDS011;4694;52.464;13.480;2023-07-20T04:55:30;12.18;;;9.05;;
9310;SDS011;4694;52.464;13.480;2023-07-20T04:57:58;15.45;;;9.35;;
9310;SDS011;4694;52.464;13.480;2023-07-20T05:00:25;11.82;;;9.52;;
9310;SDS011;4694;52.464;13.480;2023-07-20T05:02:52;11.38;;;10.05;;
9310;SDS011;4694;52.464;13.480;2023-07-20T05:05:19;12.35;;;10.85;;
9310;SDS011;4694;52.464;13.480;2023-07-20T05:07:45;13.82;;;11.05;;
9310;SDS011;4694;52.464;13.480;2023-07-20T05:10:12;12.30;;;10.25;;
9310;SDS011;4694;52.464;13.480;2023-07-20T05:12:40;12.52;;;9.90;;
9310;SDS011;4694;52.464;13.480;2023-07-20T05:15:07;11.95;;;9.85;;
9310;SDS011;4694;52.464;13.480;2023-07-20T05:17:34;11.38;;;9.13;;
9310;SDS011;4694;52.464;13.480;2023-07-20T05:20:01;11.73;;;7.97;;
9310;SDS011;4694;52.464;13.480;2023-07-20T05:22:29;11.90;;;9.98;;
9310;SDS011;4694;52.464;13.480;2023-07-20T05:24:56;9.23;;;7.82;;
9310;SDS011;4694;52.464;13.480;2023-07-20T05:27:23;9.32;;;8.40;;
9310;SDS011;4694;52.464;13.480;2023-07-20T05:29:50;9.43;;;7.57;;
9310;SDS011;4694;52.464;13.480;2023-07-20T05:32:17;9.93;;;6.90;;
9310;SDS011;4694;52.464;13.480;2023-07-20T05:34:44;10.00;;;7.13;;
9310;SDS011;4694;52.464;13.480;2023-07-20T05:37:11;7.85;;;6.25;;
9310;SDS011;4694;52.464;13.480;2023-07-20T05:39:37;6.95;;;5.68;;
9310;SDS011;4694;52.464;13.480;2023-07-20T05:42:04;5.05;;;4.55;;
9310;SDS011;4694;52.464;13.480;2023-07-20T05:44:31;7.80;;;6.57;;
9310;SDS011;4694;52.464;13.480;2023-07-20T05:46:59;5.22;;;3.60;;
9310;SDS011;4694;52.464;13.480;2023-07-20T05:49:27;6.93;;;4.32;;
9310;SDS011;4694;52.464;13.480;2023-07-20T05:51:54;5.43;;;4.25;;
9310;SDS011;4694;52.464;13.480;2023-07-20T05:54:21;6.13;;;4.68;;
9310;SDS011;4694;52.464;13.480;2023-07-20T05:56:47;6.03;;;3.95;;
9310;SDS011;4694;52.464;13.480;2023-07-20T05:59:14;3.45;;;3.08;;
9310;SDS011;4694;52.464;13.480;2023-07-20T06:01:41;3.88;;;3.58;;
9310;SDS011;4694;52.464;13.480;2023-07-20T06:04:10;4.63;;;4.20;;
9310;SDS011;4694;52.464;13.480;2023-07-20T06:06:36;6.82;;;3.80;;
9310;SDS011;4694;52.464;13.480;2023-07-20T06:09:04;12.07;;;4.97;;
9310;SDS011;4694;52.464;13.480;2023-07-20T06:11:34;7.43;;;4.35;;
9310;SDS011;4694;52.464;13.480;2023-07-20T06:14:01;4.78;;;4.35;;
9310;SDS011;4694;52.464;13.480;2023-07-20T06:16:28;5.78;;;3.63;;
9310;SDS011;4694;52.464;13.480;2023-07-20T06:18:55;9.48;;;4.35;;
9310;SDS011;4694;52.464;13.480;2023-07-20T06:21:23;4.97;;;4.53;;
9310;SDS011;4694;52.464;13.480;2023-07-20T06:23:49;7.30;;;4.25;;
9310;SDS011;4694;52.464;13.480;2023-07-20T06:26:16;5.78;;;5.13;;
9310;SDS011;4694;52.464;13.480;2023-07-20T06:28:42;11.32;;;5.75;;
9310;SDS011;4694;52.464;13.480;2023-07-20T06:31:09;6.28;;;4.82;;
9310;SDS011;4694;52.464;13.480;2023-07-20T06:33:36;6.80;;;5.85;;
9310;SDS011;4694;52.464;13.480;2023-07-20T06:36:03;9.13;;;6.55;;
9310;SDS011;4694;52.464;13.480;2023-07-20T06:38:31;9.30;;;4.72;;
9310;SDS011;4694;52.464;13.480;2023-07-20T06:40:58;7.10;;;4.70;;
9310;SDS011;4694;52.464;13.480;2023-07-20T06:43:24;6.40;;;5.80;;
9310;SDS011;4694;52.464;13.480;2023-07-20T06:45:51;6.97;;;6.13;;
9310;SDS011;4694;52.464;13.480;2023-07-20T06:48:19;10.27;;;5.95;;
9310;SDS011;4694;52.464;13.480;2023-07-20T06:50:45;6.07;;;4.20;;
9310;SDS011;4694;52.464;13.480;2023-07-20T06:53:12;4.80;;;4.40;;
9310;SDS011;4694;52.464;13.480;2023-07-20T06:55:41;3.75;;;3.38;;
9310;SDS011;4694;52.464;13.480;2023-07-20T06:58:08;4.50;;;3.38;;
9310;SDS011;4694;52.464;13.480;2023-07-20T07:00:35;3.67;;;2.67;;
9310;SDS011;4694;52.464;13.480;2023-07-20T07:03:01;5.38;;;2.95;;
9310;SDS011;4694;52.464;13.480;2023-07-20T07:05:28;2.97;;;2.50;;
9310;SDS011;4694;52.464;13.480;2023-07-20T07:07:55;4.22;;;2.88;;
9310;SDS011;4694;52.464;13.480;2023-07-20T07:10:21;6.30;;;2.38;;
9310;SDS011;4694;52.464;13.480;2023-07-20T07:12:49;2.85;;;1.48;;
9310;SDS011;4694;52.464;13.480;2023-07-20T07:15:16;2.78;;;1.60;;
9310;SDS011;4694;52.464;13.480;2023-07-20T07:17:43;2.55;;;1.35;;
9310;SDS011;4694;52.464;13.480;2023-07-20T07:20:09;2.58;;;0.95;;
9310;SDS011;4694;52.464;13.480;2023-07-20T07:22:36;2.65;;;1.15;;
9310;SDS011;4694;52.464;13.480;2023-07-20T07:25:03;5.45;;;1.92;;
9310;SDS011;4694;52.464;13.480;2023-07-20T07:27:30;3.55;;;2.08;;
9310;SDS011;4694;52.464;13.480;2023-07-20T07:29:59;2.83;;;1.67;;
9310;SDS011;4694;52.464;13.480;2023-07-20T07:32:25;1.30;;;1.00;;
9310;SDS011;4694;52.464;13.480;2023-07-20T07:34:52;8.23;;;2.13;;
9310;SDS011;4694;52.464;13.480;2023-07-20T07:37:19;3.15;;;0.65;;
9310;SDS011;4694;52.464;13.480;2023-07-20T07:39:45;2.08;;;1.20;;
9310;SDS011;4694;52.464;13.480;2023-07-20T07:42:12;1.92;;;0.80;;
9310;SDS011;4694;52.464;13.480;2023-07-20T07:44:39;4.00;;;1.38;;
9310;SDS011;4694;52.464;13.480;2023-07-20T07:47:07;1.33;;;1.10;;
9310;SDS011;4694;52.464;13.480;2023-07-20T07:49:34;1.10;;;0.65;;
9310;SDS011;4694;52.464;13.480;2023-07-20T07:52:00;3.20;;;1.02;;
9310;SDS011;4694;52.464;13.480;2023-07-20T07:54:28;1.48;;;0.90;;
9310;SDS011;4694;52.464;13.480;2023-07-20T07:56:54;4.35;;;1.25;;
9310;SDS011;4694;52.464;13.480;2023-07-20T07:59:21;1.67;;;0.63;;
9310;SDS011;4694;52.464;13.480;2023-07-20T08:01:51;3.05;;;0.90;;
9310;SDS011;4694;52.464;13.480;2023-07-20T08:04:20;1.40;;;0.80;;
9310;SDS011;4694;52.464;13.480;2023-07-20T08:06:46;3.45;;;0.77;;
9310;SDS011;4694;52.464;13.480;2023-07-20T08:09:13;0.77;;;0.65;;
9310;SDS011;4694;52.464;13.480;2023-07-20T08:11:39;1.08;;;0.80;;
9310;SDS011;4694;52.464;13.480;2023-07-20T08:14:06;1.00;;;0.50;;
9310;SDS011;4694;52.464;13.480;2023-07-20T08:16:33;0.88;;;0.60;;
9310;SDS011;4694;52.464;13.480;2023-07-20T08:19:00;1.20;;;0.73;;
9310;SDS011;4694;52.464;13.480;2023-07-20T08:21:28;1.20;;;0.52;;
9310;SDS011;4694;52.464;13.480;2023-07-20T08:23:55;1.58;;;0.47;;
9310;SDS011;4694;52.464;13.480;2023-07-20T08:26:22;1.98;;;0.60;;
9310;SDS011;4694;52.464;13.480;2023-07-20T08:28:49;0.57;;;0.40;;
9310;SDS011;4694;52.464;13.480;2023-07-20T08:31:15;1.85;;;0.88;;
9310;SDS011;4694;52.464;13.480;2023-07-20T08:33:42;1.25;;;0.90;;
9310;SDS011;4694;52.464;13.480;2023-07-20T08:36:09;0.70;;;0.60;;
9310;SDS011;4694;52.464;13.480;2023-07-20T08:38:37;1.10;;;0.60;;
9310;SDS011;4694;52.464;13.480;2023-07-20T08:41:05;1.08;;;0.60;;
9310;SDS011;4694;52.464;13.480;2023-07-20T08:43:32;0.93;;;0.40;;
9310;SDS011;4694;52.464;13.480;2023-07-20T08:45:59;1.88;;;0.60;;
9310;SDS011;4694;52.464;13.480;2023-07-20T08:48:27;2.70;;;0.30;;
9310;SDS011;4694;52.464;13.480;2023-07-20T08:50:55;1.40;;;0.40;;
9310;SDS011;4694;52.464;13.480;2023-07-20T08:53:25;1.60;;;0.82;;
9310;SDS011;4694;52.464;13.480;2023-07-20T08:55:54;1.10;;;0.50;;
9310;SDS011;4694;52.464;13.480;2023-07-20T08:58:21;2.20;;;0.47;;
9310;SDS011;4694;52.464;13.480;2023-07-20T09:00:51;2.30;;;0.30;;
9310;SDS011;4694;52.464;13.480;2023-07-20T09:03:19;1.02;;;0.30;;
9310;SDS011;4694;52.464;13.480;2023-07-20T09:05:45;0.50;;;0.50;;
9310;SDS011;4694;52.464;13.480;2023-07-20T09:08:12;2.88;;;0.30;;
9310;SDS011;4694;52.464;13.480;2023-07-20T09:10:39;1.42;;;0.40;;
9310;SDS011;4694;52.464;13.480;2023-07-20T09:13:07;0.60;;;0.35;;
9310;SDS011;4694;52.464;13.480;2023-07-20T09:15:33;2.53;;;0.40;;
9310;SDS011;4694;52.464;13.480;2023-07-20T09:18:01;1.55;;;0.50;;
9310;SDS011;4694;52.464;13.480;2023-07-20T09:20:30;0.25;;;0.25;;
9310;SDS011;4694;52.464;13.480;2023-07-20T09:23:04;3.65;;;0.40;;
9310;SDS011;4694;52.464;13.480;2023-07-20T09:28:01;0.80;;;0.40;;
9310;SDS011;4694;52.464;13.480;2023-07-20T09:30:30;0.30;;;0.30;;
9310;SDS011;4694;52.464;13.480;2023-07-20T09:32:57;1.50;;;0.40;;
9310;SDS011;4694;52.464;13.480;2023-07-20T09:35:24;0.63;;;0.30;;
9310;SDS011;4694;52.464;13.480;2023-07-20T09:37:54;2.28;;;0.22;;
9310;SDS011;4694;52.464;13.480;2023-07-20T09:40:24;0.35;;;0.17;;
9310;SDS011;4694;52.464;13.480;2023-07-20T09:42:51;2.35;;;0.60;;
9310;SDS011;4694;52.464;13.480;2023-07-20T09:45:25;0.55;;;0.28;;
9310;SDS011;4694;52.464;13.480;2023-07-20T09:47:59;0.73;;;0.40;;
9310;SDS011;4694;52.464;13.480;2023-07-20T09:50:31;0.77;;;0.30;;
9310;SDS011;4694;52.464;13.480;2023-07-20T09:52:59;0.50;;;0.28;;
9310;SDS011;4694;52.464;13.480;2023-07-20T09:55:27;0.57;;;0.40;;
9310;SDS011;4694;52.464;13.480;2023-07-20T09:57:55;1.45;;;1.17;;
9310;SDS011;4694;52.464;13.480;2023-07-20T10:00:22;0.75;;;0.30;;
9310;SDS011;4694;52.464;13.480;2023-07-20T10:02:49;0.30;;;0.30;;
9310;SDS011;4694;52.464;13.480;2023-07-20T10:05:19;0.47;;;0.25;;
9310;SDS011;4694;52.464;13.480;2023-07-20T10:07:47;1.70;;;0.30;;
9310;SDS011;4694;52.464;13.480;2023-07-20T10:10:15;1.48;;;0.30;;
9310;SDS011;4694;52.464;13.480;2023-07-20T10:12:44;0.50;;;0.40;;
9310;SDS011;4694;52.464;13.480;2023-07-20T10:15:15;0.60;;;0.30;;
9310;SDS011;4694;52.464;13.480;2023-07-20T10:17:47;2.00;;;0.50;;
9310;SDS011;4694;52.464;13.480;2023-07-20T10:20:28;0.55;;;0.25;;
9310;SDS011;4694;52.464;13.480;2023-07-20T10:22:58;1.05;;;1.00;;
9310;SDS011;4694;52.464;13.480;2023-07-20T10:25:26;0.88;;;0.50;;
9310;SDS011;4694;52.464;13.480;2023-07-20T10:27:54;0.73;;;0.47;;
9310;SDS011;4694;52.464;13.480;2023-07-20T10:30:22;2.05;;;0.50;;
9310;SDS011;4694;52.464;13.480;2023-07-20T10:32:50;1.75;;;0.57;;
9310;SDS011;4694;52.464;13.480;2023-07-20T10:35:18;0.50;;;0.50;;
9310;SDS011;4694;52.464;13.480;2023-07-20T10:37:46;0.57;;;0.57;;
9310;SDS011;4694;52.464;13.480;2023-07-20T10:40:25;1.63;;;1.10;;
9310;SDS011;4694;52.464;13.480;2023-07-20T10:42:56;1.67;;;0.65;;
9310;SDS011;4694;52.464;13.480;2023-07-20T10:45:32;3.78;;;0.45;;
9310;SDS011;4694;52.464;13.480;2023-07-20T10:48:08;2.30;;;0.50;;
9310;SDS011;4694;52.464;13.480;2023-07-20T10:50:41;1.73;;;0.63;;
9310;SDS011;4694;52.464;13.480;2023-07-20T10:53:12;0.77;;;0.50;;
9310;SDS011;4694;52.464;13.480;2023-07-20T10:55:40;0.65;;;0.40;;
9310;SDS011;4694;52.464;13.480;2023-07-20T10:58:09;2.80;;;0.50;;
9310;SDS011;4694;52.464;13.480;2023-07-20T11:00:37;1.60;;;0.50;;
9310;SDS011;4694;52.464;13.480;2023-07-20T11:03:04;1.70;;;0.50;;
9310;SDS011;4694;52.464;13.480;2023-07-20T11:05:32;2.05;;;0.50;;
9310;SDS011;4694;52.464;13.480;2023-07-20T11:08:00;1.20;;;0.40;;
9310;SDS011;4694;52.464;13.480;2023-07-20T11:10:29;2.17;;;0.70;;
9310;SDS011;4694;52.464;13.480;2023-07-20T11:13:15;0.60;;;0.60;;
9310;SDS011;4694;52.464;13.480;2023-07-20T11:15:46;0.57;;;0.43;;
9310;SDS011;4694;52.464;13.480;2023-07-20T11:18:13;1.02;;;0.57;;
9310;SDS011;4694;52.464;13.480;2023-07-20T11:20:42;2.60;;;0.70;;
9310;SDS011;4694;52.464;13.480;2023-07-20T11:23:09;0.93;;;0.70;;
9310;SDS011;4694;52.464;13.480;2023-07-20T11:25:38;1.38;;;0.77;;
9310;SDS011;4694;52.464;13.480;2023-07-20T11:28:08;3.22;;;0.68;;
9310;SDS011;4694;52.464;13.480;2023-07-20T11:30:36;1.67;;;0.60;;
9310;SDS011;4694;52.464;13.480;2023-07-20T11:33:03;6.07;;;2.05;;
9310;SDS011;4694;52.464;13.480;2023-07-20T11:35:30;1.00;;;0.30;;
9310;SDS011;4694;52.464;13.480;2023-07-20T11:38:00;0.70;;;0.45;;
9310;SDS011;4694;52.464;13.480;2023-07-20T11:40:27;0.85;;;0.43;;
9310;SDS011;4694;52.464;13.480;2023-07-20T11:42:55;0.57;;;0.57;;
9310;SDS011;4694;52.464;13.480;2023-07-20T11:45:22;4.25;;;0.98;;
9310;SDS011;4694;52.464;13.480;2023-07-20T11:47:49;1.20;;;0.40;;
9310;SDS011;4694;52.464;13.480;2023-07-20T11:50:15;2.47;;;0.45;;
9310;SDS011;4694;52.464;13.480;2023-07-20T11:52:42;1.48;;;0.32;;
9310;SDS011;4694;52.464;13.480;2023-07-20T11:55:10;1.08;;;0.30;;
9310;SDS011;4694;52.464;13.480;2023-07-20T11:57:38;2.53;;;0.90;;
9310;SDS011;4694;52.464;13.480;2023-07-20T12:00:06;1.10;;;0.30;;
9310;SDS011;4694;52.464;13.480;2023-07-20T12:02:36;0.82;;;0.40;;
9310;SDS011;4694;52.464;13.480;2023-07-20T12:05:04;0.57;;;0.30;;
9310;SDS011;4694;52.464;13.480;2023-07-20T12:07:34;0.77;;;0.30;;
9310;SDS011;4694;52.464;13.480;2023-07-20T12:10:02;0.75;;;0.40;;
9310;SDS011;4694;52.464;13.480;2023-07-20T12:12:31;1.45;;;0.30;;
9310;SDS011;4694;52.464;13.480;2023-07-20T12:17:42;0.40;;;0.30;;
9310;SDS011;4694;52.464;13.480;2023-07-20T12:20:09;0.55;;;0.50;;
9310;SDS011;4694;52.464;13.480;2023-07-20T12:22:38;6.35;;;0.68;;
9310;SDS011;4694;52.464;13.480;2023-07-20T12:25:06;2.58;;;0.40;;
9310;SDS011;4694;52.464;13.480;2023-07-20T12:27:33;1.27;;;0.50;;
9310;SDS011;4694;52.464;13.480;2023-07-20T12:30:01;1.58;;;0.40;;
9310;SDS011;4694;52.464;13.480;2023-07-20T12:32:30;1.00;;;0.30;;
9310;SDS011;4694;52.464;13.480;2023-07-20T12:34:57;0.63;;;0.40;;
9310;SDS011;4694;52.464;13.480;2023-07-20T12:37:25;1.42;;;0.50;;
9310;SDS011;4694;52.464;13.480;2023-07-20T12:39:51;0.85;;;0.35;;
9310;SDS011;4694;52.464;13.480;2023-07-20T12:42:18;1.30;;;0.77;;
9310;SDS011;4694;52.464;13.480;2023-07-20T12:44:46;0.60;;;0.40;;
9310;SDS011;4694;52.464;13.480;2023-07-20T12:47:13;5.57;;;0.60;;
9310;SDS011;4694;52.464;13.480;2023-07-20T12:49:41;0.60;;;0.40;;
9310;SDS011;4694;52.464;13.480;2023-07-20T12:54:36;2.45;;;0.40;;
9310;SDS011;4694;52.464;13.480;2023-07-20T12:57:03;1.45;;;0.20;;
9310;SDS011;4694;52.464;13.480;2023-07-20T12:59:30;0.28;;;0.20;;
9310;SDS011;4694;52.464;13.480;2023-07-20T13:01:57;0.50;;;0.30;;
9310;SDS011;4694;52.464;13.480;2023-07-20T13:04:24;3.35;;;0.50;;
9310;SDS011;4694;52.464;13.480;2023-07-20T13:06:52;0.45;;;0.45;;
9310;SDS011;4694;52.464;13.480;2023-07-20T13:09:19;0.20;;;0.20;;
9310;SDS011;4694;52.464;13.480;2023-07-20T13:11:46;0.45;;;0.20;;
9310;SDS011;4694;52.464;13.480;2023-07-20T13:14:12;1.52;;;0.45;;
9310;SDS011;4694;52.464;13.480;2023-07-20T13:16:39;0.93;;;0.30;;
9310;SDS011;4694;52.464;13.480;2023-07-20T13:19:06;0.93;;;0.30;;
9310;SDS011;4694;52.464;13.480;2023-07-20T13:21:33;2.00;;;0.75;;
9310;SDS011;4694;52.464;13.480;2023-07-20T13:24:08;0.30;;;0.20;;
9310;SDS011;4694;52.464;13.480;2023-07-20T13:26:34;2.22;;;0.22;;
9310;SDS011;4694;52.464;13.480;2023-07-20T13:29:01;0.98;;;0.30;;
9310;SDS011;4694;52.464;13.480;2023-07-20T13:31:28;0.20;;;0.20;;
9310;SDS011;4694;52.464;13.480;2023-07-20T13:33:55;0.85;;;0.85;;
9310;SDS011;4694;52.464;13.480;2023-07-20T13:36:23;1.33;;;0.20;;
9310;SDS011;4694;52.464;13.480;2023-07-20T13:38:50;2.63;;;0.30;;
9310;SDS011;4694;52.464;13.480;2023-07-20T13:41:18;0.60;;;0.38;;
9310;SDS011;4694;52.464;13.480;2023-07-20T13:43:45;1.05;;;0.28;;
9310;SDS011;4694;52.464;13.480;2023-07-20T13:46:11;0.82;;;0.20;;
9310;SDS011;4694;52.464;13.480;2023-07-20T13:48:38;0.40;;;0.28;;
9310;SDS011;4694;52.464;13.480;2023-07-20T13:51:05;1.67;;;0.30;;
9310;SDS011;4694;52.464;13.480;2023-07-20T13:53:32;4.32;;;1.35;;
9310;SDS011;4694;52.464;13.480;2023-07-20T13:55:58;0.63;;;0.20;;
9310;SDS011;4694;52.464;13.480;2023-07-20T13:58:26;0.20;;;0.20;;
9310;SDS011;4694;52.464;13.480;2023-07-20T14:00:53;0.63;;;0.20;;
9310;SDS011;4694;52.464;13.480;2023-07-20T14:03:20;0.30;;;0.20;;
9310;SDS011;4694;52.464;13.480;2023-07-20T14:05:47;0.40;;;0.30;;
9310;SDS011;4694;52.464;13.480;2023-07-20T14:08:14;2.10;;;0.35;;
9310;SDS011;4694;52.464;13.480;2023-07-20T14:10:40;0.65;;;0.40;;
9310;SDS011;4694;52.464;13.480;2023-07-20T14:13:07;2.88;;;0.40;;
9310;SDS011;4694;52.464;13.480;2023-07-20T14:15:35;0.95;;;0.40;;
9310;SDS011;4694;52.464;13.480;2023-07-20T14:18:02;0.22;;;0.20;;
9310;SDS011;4694;52.464;13.480;2023-07-20T14:20:29;1.05;;;0.20;;
9310;SDS011;4694;52.464;13.480;2023-07-20T14:22:56;0.57;;;0.20;;
9310;SDS011;4694;52.464;13.480;2023-07-20T14:25:22;0.57;;;0.20;;
9310;SDS011;4694;52.464;13.480;2023-07-20T14:27:49;1.40;;;0.30;;
9310;SDS011;4694;52.464;13.480;2023-07-20T14:30:16;0.75;;;0.22;;
9310;SDS011;4694;52.464;13.480;2023-07-20T14:32:44;1.10;;;0.20;;
9310;SDS011;4694;52.464;13.480;2023-07-20T14:35:10;0.50;;;0.40;;
9310;SDS011;4694;52.464;13.480;2023-07-20T14:37:37;0.73;;;0.50;;
9310;SDS011;4694;52.464;13.480;2023-07-20T14:40:04;2.13;;;0.35;;
9310;SDS011;4694;52.464;13.480;2023-07-20T14:42:32;0.32;;;0.22;;
9310;SDS011;4694;52.464;13.480;2023-07-20T14:44:58;1.13;;;0.20;;
9310;SDS011;4694;52.464;13.480;2023-07-20T14:47:25;0.50;;;0.30;;
9310;SDS011;4694;52.464;13.480;2023-07-20T14:49:53;1.80;;;0.47;;
9310;SDS011;4694;52.464;13.480;2023-07-20T14:52:19;0.70;;;0.20;;
9310;SDS011;4694;52.464;13.480;2023-07-20T14:54:46;2.55;;;0.28;;
9310;SDS011;4694;52.464;13.480;2023-07-20T14:57:13;0.40;;;0.20;;
9310;SDS011;4694;52.464;13.480;2023-07-20T14:59:40;0.40;;;0.30;;
9310;SDS011;4694;52.464;13.480;2023-07-20T15:02:08;1.20;;;0.73;;
9310;SDS011;4694;52.464;13.480;2023-07-20T15:04:35;2.25;;;0.50;;
9310;SDS011;4694;52.464;13.480;2023-07-20T15:07:04;0.75;;;0.25;;
9310;SDS011;4694;52.464;13.480;2023-07-20T15:09:31;1.55;;;0.30;;
9310;SDS011;4694;52.464;13.480;2023-07-20T15:11:58;1.67;;;0.60;;
9310;SDS011;4694;52.464;13.480;2023-07-20T15:14:25;0.45;;;0.30;;
9310;SDS011;4694;52.464;13.480;2023-07-20T15:16:52;1.70;;;0.30;;